• Join FlightAware (Why Join?)
  • Login
  • US Flag 
08:22AM EDT


 

Airport Tracker/Info


-or-


 

Live Flight TrackerFlight Track Log ✈ KLM1000 ✈ 30-Apr-2013 ✈ EGLL / LHR - EHAM / AMS

Flight Track Log - Related Links

Times and Time Zones

All times are in EDT time to prevent confusion due to time zone crossing. See the KLM1000 flight status page for this flight to view local times or setup timezone preferences in your user account.

Time Position Orientation Groundspeed Altitude Reporting Facility
EDT Latitude Longitude Course Direction KTS MPH feet Rate Location/Type
02:02AM 51.5903 0.1607 74° East  Level Estimated
02:03AM 51.6042 0.2386 74° East  Level Estimated
02:04AM 51.6180 0.3167 74° East  Level Estimated
02:05AM 51.6318 0.3947 74° East  Level Estimated
02:06AM 51.6455 0.4728 74° East  Level Estimated
02:07AM 51.6592 0.5510 74° East  Level Estimated
02:08AM 51.6728 0.6292 74° East  Level Estimated
02:09AM 51.6863 0.7075 74° East  Level Estimated
02:10AM 51.6998 0.7858 74° East  Level Estimated
02:11AM 51.7133 0.8641 74° East  Level Estimated
02:12AM 51.7267 0.9425 75° East  Level Estimated
02:13AM 51.7401 1.0210 75° East  Level Estimated
02:14AM 51.7534 1.0995 75° East  Level Estimated
02:15AM 51.7666 1.1780 75° East  Level Estimated
02:16AM 51.7798 1.2566 75° East  Level Estimated
02:16AM 51.4781 -0.5230 75° East 170 196 1,400  Level FlightAware ADS-B
02:17AM 51.4789 -0.5418 274° West 168 193 2,200 2,820 Climbing FlightAware ADS-B
02:17AM 51.4794 -0.5478 278° West 166 191 2,400 2,700 Climbing FlightAware ADS-B
02:17AM 51.4806 -0.5550 285° West 164 189 2,700 3,300 Climbing FlightAware ADS-B
02:17AM 51.4813 -0.5584 288° West 161 185 2,900 3,960 Climbing FlightAware ADS-B
02:17AM 51.4823 -0.5629 290° West 159 183 3,100 3,000 Climbing FlightAware ADS-B
02:17AM 51.4837 -0.5672 297° West 161 185 3,300 2,400 Climbing FlightAware ADS-B
02:17AM 51.4856 -0.5739 295° West 170 196 3,500 1,980 Climbing FlightAware ADS-B
02:17AM 51.4881 -0.5807 301° West 177 204 3,700 1,380 Climbing FlightAware ADS-B
02:17AM 51.4930 -0.5936 301° West 198 228 3,900 1,260 Climbing FlightAware ADS-B
02:18AM 51.4974 -0.6055 301° West 216 249 4,100 2,160 Climbing FlightAware ADS-B
02:18AM 51.5035 -0.6231 299° West 225 259 4,700 2,820 Climbing FlightAware ADS-B
02:18AM 51.5053 -0.6290 296° West 227 261 4,900 3,300 Climbing FlightAware ADS-B
02:18AM 51.5086 -0.6359 307° West 228 262 5,200 3,720 Climbing FlightAware ADS-B
02:18AM 51.5108 -0.6396 314° West 229 264 5,400 3,600 Climbing FlightAware ADS-B
02:18AM 51.5168 -0.6472 322° Northwest 231 266 5,800 3,000 Climbing FlightAware ADS-B
02:18AM 51.5199 -0.6504 327° Northwest 232 267 5,900 3,000 Climbing FlightAware ADS-B
02:18AM 51.5229 -0.6524 338° Northwest 233 268 6,100 3,000 Climbing FlightAware ADS-B
02:18AM 51.5272 -0.6544 344° North 235 270 6,300 3,000 Climbing FlightAware ADS-B
02:18AM 51.5306 -0.6552 351° North 236 272 6,500 3,960 Climbing FlightAware ADS-B
02:18AM 51.5347 -0.6558 355° North 239 275 6,700 4,260 Climbing FlightAware ADS-B
02:18AM 51.5392 -0.6555 North 241 277 7,000 3,300 Climbing FlightAware ADS-B
02:19AM 51.5441 -0.6543 North 243 280 7,200 2,640 Climbing FlightAware ADS-B
02:19AM 51.5482 -0.6523 17° North 244 281 7,400 3,960 Climbing FlightAware ADS-B
02:19AM 51.5533 -0.6485 25° Northeast 244 281 7,800 4,200 Climbing FlightAware ADS-B
02:19AM 51.5578 -0.6434 35° Northeast 245 282 8,100 3,960 Climbing FlightAware ADS-B
02:19AM 51.5617 -0.6374 44° Northeast 248 285 8,400 3,420 Climbing FlightAware ADS-B
02:19AM 51.5739 -0.6172 46° Northeast 255 293 9,200 3,240 Climbing FlightAware ADS-B
02:19AM 51.5916 -0.5861 48° Northeast 261 300 10,400 3,120 Climbing FlightAware ADS-B
02:20AM 51.6057 -0.5609 48° Northeast 267 307 11,300 1,920 Climbing FlightAware ADS-B
02:20AM 51.6220 -0.5219 56° Northeast 308 354 11,700 960 Climbing FlightAware ADS-B
02:20AM 51.6276 -0.5055 61° Northeast 322 371 11,800 1,380 Climbing FlightAware ADS-B
02:21AM 51.6399 -0.4628 65° Northeast 343 395 12,300 2,220 Climbing FlightAware ADS-B
02:21AM 51.6481 -0.4375 62° Northeast 346 398 12,900 -720 Climbing FlightAware ADS-B
02:21AM 51.6595 -0.4039 62° Northeast 342 394 12,000 2,280 Descending FlightAware UK
02:21AM 51.6727 -0.3656 62° Northeast 368 423 14,100 1,980 Climbing FlightAware ADS-B
02:22AM 51.6948 -0.3020 62° Northeast 358 412 13,400 1,620 Descending FlightAware UK
02:22AM 51.7004 -0.2875 62° Northeast 378 435 15,000 180 Climbing FlightAware ADS-B
02:22AM 51.7203 -0.2287 62° Northeast 356 410 13,500  Descending FlightAware UK
02:22AM 51.7277 -0.2090 62° Northeast 377 434 15,000  Climbing FlightAware ADS-B
02:23AM 51.7409 -0.1699 62° Northeast 354 407 13,500  Descending FlightAware UK
02:23AM 51.7538 -0.1336 62° Northeast 375 432 15,000  Climbing FlightAware ADS-B
02:23AM 51.7714 -0.0823 62° Northeast 352 405 13,500  Descending FlightAware UK
02:23AM 51.7808 -0.0554 62° Northeast 376 433 15,000  Climbing FlightAware ADS-B
02:24AM 51.8036 0.0096 62° Northeast 386 444 13,500  Descending FlightAware UK
02:24AM 51.8102 0.0278 62° Northeast 413 475 15,000 480 Climbing FlightAware ADS-B
02:24AM 51.8265 0.0740 62° Northeast 396 456 13,700 1,680 Descending FlightAware UK
02:25AM 51.8470 0.1307 62° Northeast 424 488 16,100 2,280 Climbing FlightAware ADS-B
02:25AM 51.8618 0.1733 62° Northeast 402 463 15,100 -600 Descending FlightAware UK
02:25AM 51.8798 0.2240 60° Northeast 406 467 15,800 2,160 Climbing FlightAware UK
02:25AM 51.8980 0.2753 60° Northeast 410 472 16,400 6,300 Climbing FlightAware UK
02:25AM 51.8960 0.2690 60° Northeast 446 513 17,800 1,920 Climbing FlightAware
02:26AM 51.9362 0.3828 60° Northeast 420 483 17,600 1,980 Descending FlightAware UK
02:26AM 51.9410 0.3960 60° Northeast 462 532 19,300 2,220 Climbing FlightAware
02:27AM 51.9744 0.4905 60° Northeast 406 467 18,900 2,400 Descending FlightAware UK
02:27AM 51.9850 0.5180 60° Northeast 448 516 20,900 2,400 Climbing FlightAware
02:27AM 52.0054 0.5764 60° Northeast 382 440 20,100 -180 Descending FlightAware UK
02:27AM 52.0234 0.6263 60° Northeast 368 423 20,800 6,000 Climbing FlightAware UK
02:27AM 52.0260 0.6310 60° Northeast 422 486 22,500 1,140 Climbing FlightAware
02:28AM 52.0586 0.7242 60° Northeast 358 412 21,500 660 Descending FlightAware UK
02:28AM 52.0710 0.7550 60° Northeast 416 479 23,000  Climbing FlightAware
02:29AM 52.0942 0.8217 60° Northeast 352 405 21,500 -2,280 Descending FlightAware UK
02:29AM 52.1118 0.8698 59° Northeast 352 405 21,500 4,980 Level FlightAware UK
02:29AM 52.1100 0.8630 59° Northeast 414 476 23,000  Climbing FlightAware
02:29AM 52.1296 0.9185 59° Northeast 350 403 21,500 -2,520 Descending FlightAware UK
02:29AM 52.1472 0.9665 59° Northeast 348 400 21,500 3,300 Level FlightAware UK
02:30AM 52.1530 0.9830 59° Northeast 411 473 23,000  Climbing FlightAware
02:30AM 52.1661 1.0332 59° Northeast 348 400 21,500  Descending FlightAware UK
02:30AM 52.1700 1.0640 59° Northeast 410 472 23,000  Climbing FlightAware
02:30AM 52.1765 1.1244 59° Northeast 348 400 21,500 -2,760 Descending FlightAware UK
02:31AM 52.1822 1.1793 80° East 350 403 21,500 3,600 Level FlightAware UK
02:31AM 52.1840 1.1920 80° East 412 474 23,000  Climbing FlightAware
02:31AM 52.1934 1.2896 80° East 350 403 21,500  Descending FlightAware UK
02:31AM 52.1960 1.3150 80° East 412 474 23,000  Climbing FlightAware
02:32AM 52.2044 1.4005 80° East 350 403 21,500  Descending FlightAware UK
02:32AM 52.2100 1.4560 80° East 413 475 23,000  Climbing FlightAware
02:32AM 52.2155 1.5116 80° East 350 403 21,500  Descending FlightAware UK
02:33AM 52.2240 1.5910 80° East 415 478 23,000  Climbing FlightAware
02:33AM 52.2301 1.6589 80° East 352 405 21,500  Descending FlightAware UK
02:34AM 52.2350 1.7120 80° East 416 479 23,000  Climbing FlightAware
02:34AM 52.2425 1.7898 80° East 352 405 21,500  Descending FlightAware UK
02:34AM 52.2460 1.8360 80° East 415 478 23,000  Climbing FlightAware
02:35AM 52.2432 1.9009 80° East 352 405 21,500  Descending FlightAware UK
02:35AM 52.2390 1.9620 80° East 413 475 23,000  Climbing FlightAware
02:35AM 52.2448 2.0310 80° East 352 405 21,500 -2,460 Descending FlightAware UK
02:36AM 52.2535 2.0858 76° East 352 405 21,500 3,420 Level FlightAware UK
02:36AM 52.2560 2.1010 76° East 417 480 23,000  Climbing FlightAware
02:36AM 52.2650 2.1597 76° East 350 403 21,500 -2,700 Descending FlightAware UK
02:36AM 52.2735 2.2146 76° East 352 405 21,500 3,060 Level FlightAware UK
02:36AM 52.2760 2.2320 76° East 417 480 23,000  Climbing FlightAware
02:37AM 52.2871 2.3059 76° East 352 405 21,500  Descending FlightAware UK
02:37AM 52.2960 2.3640 76° East 418 481 23,000  Climbing FlightAware
02:37AM 52.3035 2.4171 76° East 352 405 21,500 -2,760 Descending FlightAware UK
02:38AM 52.3118 2.4725 76° East 352 405 21,500 3,600 Level FlightAware UK
02:38AM 52.3140 2.4870 76° East 419 482 23,000  Climbing FlightAware
02:38AM 52.3229 2.5464 76° East 352 405 21,500 -3,000 Descending FlightAware UK
02:38AM 52.3313 2.6025 76° East 352 405 21,200 2,340 Descending FlightAware UK
02:39AM 52.3340 2.6220 76° East 416 479 22,600 -1,620 Climbing FlightAware
02:39AM 52.3449 2.6946 76° East 348 400 20,400 -1,680 Descending FlightAware UK
02:39AM 52.3510 2.7340 76° East 410 472 21,500 -1,800 Climbing FlightAware
02:40AM 52.3663 2.8383 76° East 348 400 19,000 -1,920 Descending FlightAware UK
02:40AM 52.3720 2.8810 76° East 405 466 20,100 -1,680 Climbing FlightAware
02:40AM 52.3819 2.9454 76° East 350 403 18,000 -1,680 Descending FlightAware UK
02:41AM 52.3890 2.9930 76° East 397 457 19,000 -1,800 Climbing FlightAware
02:41AM 52.4020 3.0845 76° East 346 398 16,600 -1,680 Descending FlightAware UK
02:41AM 52.4050 3.1060 76° East 388 447 17,900 -1,680 Climbing FlightAware
02:42AM 52.4166 3.1870 76° East 344 396 15,600 -1,680 Descending FlightAware UK
02:42AM 52.4220 3.2220 76° East 377 434 16,800 -1,680 Climbing FlightAware
02:42AM 52.4308 3.2870 76° East 336 387 14,600 -1,620 Descending FlightAware UK
02:43AM 52.4390 3.3440 76° East 362 417 15,600 -1,620 Climbing FlightAware
02:43AM 52.4474 3.3988 76° East 322 371 13,500 -4,320 Descending FlightAware UK
02:43AM 52.4541 3.4460 77° East 316 364 13,100 1,920 Descending FlightAware UK
02:43AM 52.4570 3.4670 77° East 345 397 14,400 -1,500 Climbing FlightAware
02:44AM 52.4665 3.5376 77° East 310 357 12,200 -1,380 Descending FlightAware UK
02:44AM 52.4700 3.5650 77° East 336 387 13,500 -1,440 Climbing FlightAware
02:44AM 52.4763 3.6118 77° East 308 354 11,500 -4,620 Descending FlightAware UK
02:45AM 52.4823 3.6561 77° East 310 357 10,900 2,220 Descending FlightAware UK
02:45AM 52.4840 3.6630 77° East 333 383 12,400 420 Climbing FlightAware
02:46AM 52.4990 3.7730 77° East 326 375 11,300 -3,000 Descending FlightAware
02:46AM 52.5076 3.8308 77° East 298 343 9,100 -1,380 Descending FlightAware UK
02:46AM 52.5120 3.8660 77° East 314 361 10,400 -720 Climbing FlightAware
02:46AM 52.5187 3.9132 77° East 284 327 8,700 -3,300 Descending FlightAware UK
02:47AM 52.5234 3.9523 79° East 1 1 8,500 2,520 Descending FlightAware UK
02:47AM 52.5230 3.9700 79° East 286 329 9,900 1,680 Climbing FlightAware
02:47AM 52.5130 4.0190 109° East 283 326 9,500 -1,080 Descending FlightAware
02:48AM 52.5050 4.0510 112° Southeast 281 323 9,200 -1,200 Descending FlightAware
02:48AM 52.4900 4.1100 113° Southeast 278 320 8,600 -1,200 Descending FlightAware
02:49AM 52.4790 4.1570 111° Southeast 276 318 8,100 -1,200 Descending FlightAware
02:49AM 52.4640 4.2150 113° Southeast 270 311 7,500 -1,140 Descending FlightAware
02:49AM 52.4520 4.2630 112° Southeast 267 307 7,100 -3,000 Descending FlightAware
02:50AM 52.4391 4.3166 112° Southeast 1 1 5,000 -1,200 Descending FlightAware UK
02:50AM 52.4380 4.3190 112° Southeast 264 304 6,500 2,040 Climbing FlightAware
02:50AM 52.4260 4.3630 114° Southeast 261 300 6,000 -3,000 Descending FlightAware
02:51AM 52.4109 4.4121 114° Southeast 1 1 4,000 -1,020 Descending FlightAware UK
02:51AM 52.4100 4.4160 114° Southeast 256 295 5,500 1,500 Climbing FlightAware
02:51AM 52.3970 4.4690 112° Southeast 252 290 4,900 -1,140 Descending FlightAware
02:52AM 52.3860 4.5150 111° Southeast 249 287 4,500 -840 Descending FlightAware
02:52AM 52.3760 4.5570 111° Southeast 240 276 4,200 -600 Descending FlightAware
02:53AM 52.3610 4.6140 113° Southeast 223 257 3,900 -540 Descending FlightAware
02:53AM 52.3540 4.6240 139° Southeast 215 247 3,800 -720 Descending FlightAware
02:53AM 52.3400 4.6290 168° South 207 238 3,600 -840 Descending FlightAware
02:53AM 52.3270 4.6210 201° Southwest 200 230 3,400 -1,200 Descending FlightAware
02:54AM 52.3180 4.6020 232° Southwest 200 230 3,000 -960 Descending FlightAware
02:54AM 52.3040 4.5620 240° Southwest 202 232 2,700 -480 Descending FlightAware
02:55AM 52.2920 4.5320 237° Southwest 203 234 2,600 -480 Descending FlightAware
02:55AM 52.2780 4.4960 238° Southwest 203 234 2,300 -660 Descending FlightAware
02:56AM 52.2640 4.4610 237° Southwest 207 238 2,000 -540 Descending FlightAware
02:56AM 52.2500 4.4480 210° Southwest 208 239 1,900 -420 Descending FlightAware
02:56AM 52.2370 4.4480 180° South 212 244 1,800 -420 Descending FlightAware
02:56AM 52.2220 4.4600 154° Southeast 213 245 1,700  Descending FlightAware
02:56AM 52.2150 4.4720 134° Southeast 213 245 1,800 240 Climbing FlightAware
02:57AM 52.2100 4.4920 112° Southeast 212 244 1,800 -120 Level FlightAware
02:57AM 52.2210 4.5600 75° East 202 232 1,700 -120 Descending FlightAware
02:58AM 52.2320 4.5890 58° Northeast 180 207 1,700 -240 Level FlightAware
02:58AM 52.2440 4.6210 59° Northeast 155 178 1,500 -660 Descending FlightAware
02:59AM 52.2530 4.6440 57° Northeast 142 163 1,100 -900 Descending FlightAware
02:59AM 52.2640 4.6720 57° Northeast 138 159 700 -780 Descending FlightAware
02:59AM 52.2670 4.6810 61° Northeast 137 158 600 -780 Descending FlightAware
03:00AM 52.2780 4.7080 56° Northeast 144 166 200 -840 Descending FlightAware
03:00AM 52.2880 4.7340 58° Northeast 149 171 -420 Descending FlightAware